sensor_id;sensor_type;location;lat;lon;timestamp;P1;durP1;ratioP1;P2;durP2;ratioP2
32236;SDS011;18726;44.732;10.550;2023-04-30T00:01:23;39.35;;;31.92;;
32236;SDS011;18726;44.732;10.550;2023-04-30T00:04:27;32.47;;;27.60;;
32236;SDS011;18726;44.732;10.550;2023-04-30T00:07:31;36.38;;;30.98;;
32236;SDS011;18726;44.732;10.550;2023-04-30T00:10:34;39.03;;;33.42;;
32236;SDS011;18726;44.732;10.550;2023-04-30T00:13:38;43.50;;;36.47;;
32236;SDS011;18726;44.732;10.550;2023-04-30T00:16:41;42.38;;;34.15;;
32236;SDS011;18726;44.732;10.550;2023-04-30T00:19:45;46.03;;;34.95;;
32236;SDS011;18726;44.732;10.550;2023-04-30T00:22:48;44.67;;;34.67;;
32236;SDS011;18726;44.732;10.550;2023-04-30T00:25:52;40.53;;;33.42;;
32236;SDS011;18726;44.732;10.550;2023-04-30T00:28:56;37.80;;;30.65;;
32236;SDS011;18726;44.732;10.550;2023-04-30T00:31:59;29.27;;;25.40;;
32236;SDS011;18726;44.732;10.550;2023-04-30T00:35:04;37.53;;;29.95;;
32236;SDS011;18726;44.732;10.550;2023-04-30T00:38:07;40.72;;;32.90;;
32236;SDS011;18726;44.732;10.550;2023-04-30T00:41:11;42.00;;;33.72;;
32236;SDS011;18726;44.732;10.550;2023-04-30T00:44:15;36.25;;;31.60;;
32236;SDS011;18726;44.732;10.550;2023-04-30T00:47:19;30.67;;;24.25;;
32236;SDS011;18726;44.732;10.550;2023-04-30T00:50:23;41.00;;;32.55;;
32236;SDS011;18726;44.732;10.550;2023-04-30T00:53:27;42.17;;;35.75;;
32236;SDS011;18726;44.732;10.550;2023-04-30T00:56:31;52.60;;;38.00;;
32236;SDS011;18726;44.732;10.550;2023-04-30T00:59:35;57.33;;;39.97;;
32236;SDS011;18726;44.732;10.550;2023-04-30T01:02:39;49.42;;;39.30;;
32236;SDS011;18726;44.732;10.550;2023-04-30T01:05:43;49.13;;;40.03;;
32236;SDS011;18726;44.732;10.550;2023-04-30T01:08:47;45.85;;;40.83;;
32236;SDS011;18726;44.732;10.550;2023-04-30T01:12:06;53.13;;;41.65;;
32236;SDS011;18726;44.732;10.550;2023-04-30T01:15:53;50.47;;;43.15;;
32236;SDS011;18726;44.732;10.550;2023-04-30T01:19:01;50.85;;;43.38;;
32236;SDS011;18726;44.732;10.550;2023-04-30T01:22:13;52.45;;;43.20;;
32236;SDS011;18726;44.732;10.550;2023-04-30T01:28:43;58.78;;;47.05;;
32236;SDS011;18726;44.732;10.550;2023-04-30T01:31:48;56.50;;;43.88;;
32236;SDS011;18726;44.732;10.550;2023-04-30T01:34:51;57.50;;;47.45;;
32236;SDS011;18726;44.732;10.550;2023-04-30T01:38:03;58.38;;;48.05;;
32236;SDS011;18726;44.732;10.550;2023-04-30T01:48:24;63.08;;;49.63;;
32236;SDS011;18726;44.732;10.550;2023-04-30T01:51:39;61.45;;;48.63;;
32236;SDS011;18726;44.732;10.550;2023-04-30T01:54:44;58.58;;;46.63;;
32236;SDS011;18726;44.732;10.550;2023-04-30T01:57:56;46.08;;;40.20;;
32236;SDS011;18726;44.732;10.550;2023-04-30T02:01:01;52.15;;;43.13;;
32236;SDS011;18726;44.732;10.550;2023-04-30T02:04:04;51.83;;;42.25;;
32236;SDS011;18726;44.732;10.550;2023-04-30T02:07:08;41.13;;;36.85;;
32236;SDS011;18726;44.732;10.550;2023-04-30T02:10:12;40.88;;;34.42;;
32236;SDS011;18726;44.732;10.550;2023-04-30T02:13:18;43.35;;;38.53;;
32236;SDS011;18726;44.732;10.550;2023-04-30T02:16:22;53.22;;;44.17;;
32236;SDS011;18726;44.732;10.550;2023-04-30T02:19:26;56.75;;;48.20;;
32236;SDS011;18726;44.732;10.550;2023-04-30T02:22:30;59.35;;;45.15;;
32236;SDS011;18726;44.732;10.550;2023-04-30T02:25:34;58.70;;;47.50;;
32236;SDS011;18726;44.732;10.550;2023-04-30T02:28:40;51.10;;;40.72;;
32236;SDS011;18726;44.732;10.550;2023-04-30T02:31:44;56.95;;;46.50;;
32236;SDS011;18726;44.732;10.550;2023-04-30T02:34:48;47.80;;;38.85;;
32236;SDS011;18726;44.732;10.550;2023-04-30T02:37:52;64.15;;;43.70;;
32236;SDS011;18726;44.732;10.550;2023-04-30T02:40:55;50.85;;;41.22;;
32236;SDS011;18726;44.732;10.550;2023-04-30T02:43:59;49.50;;;38.83;;
32236;SDS011;18726;44.732;10.550;2023-04-30T02:47:03;44.88;;;37.33;;
32236;SDS011;18726;44.732;10.550;2023-04-30T02:50:08;49.33;;;41.50;;
32236;SDS011;18726;44.732;10.550;2023-04-30T02:53:12;43.30;;;34.20;;
32236;SDS011;18726;44.732;10.550;2023-04-30T02:56:16;53.95;;;38.45;;
32236;SDS011;18726;44.732;10.550;2023-04-30T02:59:19;61.28;;;43.08;;
32236;SDS011;18726;44.732;10.550;2023-04-30T03:02:23;69.35;;;39.28;;
32236;SDS011;18726;44.732;10.550;2023-04-30T03:05:27;41.20;;;33.38;;
32236;SDS011;18726;44.732;10.550;2023-04-30T03:08:31;41.63;;;36.03;;
32236;SDS011;18726;44.732;10.550;2023-04-30T03:11:34;35.42;;;29.05;;
32236;SDS011;18726;44.732;10.550;2023-04-30T03:14:40;32.65;;;28.73;;
32236;SDS011;18726;44.732;10.550;2023-04-30T03:17:44;29.10;;;26.02;;
32236;SDS011;18726;44.732;10.550;2023-04-30T03:20:48;34.00;;;30.52;;
32236;SDS011;18726;44.732;10.550;2023-04-30T03:23:51;28.10;;;23.75;;
32236;SDS011;18726;44.732;10.550;2023-04-30T03:26:55;53.58;;;31.08;;
32236;SDS011;18726;44.732;10.550;2023-04-30T03:29:59;36.80;;;31.35;;
32236;SDS011;18726;44.732;10.550;2023-04-30T03:33:03;46.03;;;35.25;;
32236;SDS011;18726;44.732;10.550;2023-04-30T03:36:08;41.20;;;32.55;;
32236;SDS011;18726;44.732;10.550;2023-04-30T03:39:13;48.10;;;37.10;;
32236;SDS011;18726;44.732;10.550;2023-04-30T03:42:18;53.15;;;34.53;;
32236;SDS011;18726;44.732;10.550;2023-04-30T03:45:21;39.97;;;28.05;;
32236;SDS011;18726;44.732;10.550;2023-04-30T03:48:25;50.38;;;34.97;;
32236;SDS011;18726;44.732;10.550;2023-04-30T03:51:30;42.28;;;36.22;;
32236;SDS011;18726;44.732;10.550;2023-04-30T03:54:33;48.13;;;39.58;;
32236;SDS011;18726;44.732;10.550;2023-04-30T03:57:38;46.90;;;38.33;;
32236;SDS011;18726;44.732;10.550;2023-04-30T04:00:43;65.88;;;46.80;;
32236;SDS011;18726;44.732;10.550;2023-04-30T04:03:50;59.58;;;47.38;;
32236;SDS011;18726;44.732;10.550;2023-04-30T04:06:54;56.42;;;44.40;;
32236;SDS011;18726;44.732;10.550;2023-04-30T04:09:58;60.15;;;50.58;;
32236;SDS011;18726;44.732;10.550;2023-04-30T04:13:03;61.83;;;51.28;;
32236;SDS011;18726;44.732;10.550;2023-04-30T04:16:09;72.03;;;54.15;;
32236;SDS011;18726;44.732;10.550;2023-04-30T04:19:13;74.90;;;57.40;;
32236;SDS011;18726;44.732;10.550;2023-04-30T04:22:17;67.53;;;57.28;;
32236;SDS011;18726;44.732;10.550;2023-04-30T04:25:21;73.55;;;59.30;;
32236;SDS011;18726;44.732;10.550;2023-04-30T04:28:27;81.43;;;62.60;;
32236;SDS011;18726;44.732;10.550;2023-04-30T04:31:31;88.60;;;62.20;;
32236;SDS011;18726;44.732;10.550;2023-04-30T04:34:35;85.63;;;64.50;;
32236;SDS011;18726;44.732;10.550;2023-04-30T04:37:40;87.20;;;65.00;;
32236;SDS011;18726;44.732;10.550;2023-04-30T04:40:54;101.35;;;67.32;;
32236;SDS011;18726;44.732;10.550;2023-04-30T04:43:59;90.00;;;67.07;;
32236;SDS011;18726;44.732;10.550;2023-04-30T04:47:04;105.72;;;70.85;;
32236;SDS011;18726;44.732;10.550;2023-04-30T04:50:08;105.90;;;70.25;;
32236;SDS011;18726;44.732;10.550;2023-04-30T04:53:13;103.13;;;72.93;;
32236;SDS011;18726;44.732;10.550;2023-04-30T04:56:17;101.25;;;72.13;;
32236;SDS011;18726;44.732;10.550;2023-04-30T04:59:21;107.60;;;72.25;;
32236;SDS011;18726;44.732;10.550;2023-04-30T05:02:25;104.07;;;69.78;;
32236;SDS011;18726;44.732;10.550;2023-04-30T05:05:29;98.32;;;64.70;;
32236;SDS011;18726;44.732;10.550;2023-04-30T05:08:33;86.78;;;67.20;;
32236;SDS011;18726;44.732;10.550;2023-04-30T05:11:37;97.32;;;67.00;;
32236;SDS011;18726;44.732;10.550;2023-04-30T05:14:40;93.53;;;66.90;;
32236;SDS011;18726;44.732;10.550;2023-04-30T05:17:45;93.05;;;68.50;;
32236;SDS011;18726;44.732;10.550;2023-04-30T05:20:48;93.88;;;65.57;;
32236;SDS011;18726;44.732;10.550;2023-04-30T05:23:52;90.45;;;62.75;;
32236;SDS011;18726;44.732;10.550;2023-04-30T05:26:55;98.53;;;57.47;;
32236;SDS011;18726;44.732;10.550;2023-04-30T05:29:59;77.47;;;55.72;;
32236;SDS011;18726;44.732;10.550;2023-04-30T05:33:03;65.32;;;47.30;;
32236;SDS011;18726;44.732;10.550;2023-04-30T05:36:08;57.10;;;42.08;;
32236;SDS011;18726;44.732;10.550;2023-04-30T05:39:12;46.83;;;37.72;;
32236;SDS011;18726;44.732;10.550;2023-04-30T05:42:16;52.75;;;36.88;;
32236;SDS011;18726;44.732;10.550;2023-04-30T05:45:19;43.90;;;35.17;;
32236;SDS011;18726;44.732;10.550;2023-04-30T05:48:23;40.65;;;32.30;;
32236;SDS011;18726;44.732;10.550;2023-04-30T05:51:27;46.17;;;35.88;;
32236;SDS011;18726;44.732;10.550;2023-04-30T05:54:31;43.78;;;34.40;;
32236;SDS011;18726;44.732;10.550;2023-04-30T05:57:35;39.97;;;31.67;;
32236;SDS011;18726;44.732;10.550;2023-04-30T06:00:39;39.25;;;31.60;;
32236;SDS011;18726;44.732;10.550;2023-04-30T06:03:43;38.70;;;33.00;;
32236;SDS011;18726;44.732;10.550;2023-04-30T06:06:46;40.60;;;34.80;;
32236;SDS011;18726;44.732;10.550;2023-04-30T06:09:49;42.40;;;36.22;;
32236;SDS011;18726;44.732;10.550;2023-04-30T06:12:53;46.75;;;38.50;;
32236;SDS011;18726;44.732;10.550;2023-04-30T06:15:57;51.13;;;41.22;;
32236;SDS011;18726;44.732;10.550;2023-04-30T06:19:00;59.58;;;45.80;;
32236;SDS011;18726;44.732;10.550;2023-04-30T06:22:04;64.72;;;48.70;;
32236;SDS011;18726;44.732;10.550;2023-04-30T06:25:08;66.13;;;49.63;;
32236;SDS011;18726;44.732;10.550;2023-04-30T06:28:12;76.10;;;51.70;;
32236;SDS011;18726;44.732;10.550;2023-04-30T06:31:15;62.70;;;47.28;;
32236;SDS011;18726;44.732;10.550;2023-04-30T06:34:20;67.70;;;47.90;;
32236;SDS011;18726;44.732;10.550;2023-04-30T06:37:24;59.20;;;44.70;;
32236;SDS011;18726;44.732;10.550;2023-04-30T06:40:27;55.75;;;42.33;;
32236;SDS011;18726;44.732;10.550;2023-04-30T06:43:31;55.25;;;40.13;;
32236;SDS011;18726;44.732;10.550;2023-04-30T06:46:34;50.35;;;38.47;;
32236;SDS011;18726;44.732;10.550;2023-04-30T06:49:38;56.97;;;40.85;;
32236;SDS011;18726;44.732;10.550;2023-04-30T06:52:41;55.00;;;39.17;;
32236;SDS011;18726;44.732;10.550;2023-04-30T06:55:45;57.25;;;38.85;;
32236;SDS011;18726;44.732;10.550;2023-04-30T06:58:49;57.38;;;39.40;;
32236;SDS011;18726;44.732;10.550;2023-04-30T07:01:52;51.85;;;38.33;;
32236;SDS011;18726;44.732;10.550;2023-04-30T07:04:56;49.92;;;37.63;;
32236;SDS011;18726;44.732;10.550;2023-04-30T07:08:00;45.88;;;35.63;;
32236;SDS011;18726;44.732;10.550;2023-04-30T07:11:05;38.63;;;29.10;;
32236;SDS011;18726;44.732;10.550;2023-04-30T07:14:09;35.78;;;25.75;;
32236;SDS011;18726;44.732;10.550;2023-04-30T07:17:12;33.80;;;26.45;;
32236;SDS011;18726;44.732;10.550;2023-04-30T07:20:16;35.80;;;23.25;;
32236;SDS011;18726;44.732;10.550;2023-04-30T07:23:19;31.58;;;21.40;;
32236;SDS011;18726;44.732;10.550;2023-04-30T07:26:23;30.05;;;22.40;;
32236;SDS011;18726;44.732;10.550;2023-04-30T07:29:28;27.80;;;21.20;;
32236;SDS011;18726;44.732;10.550;2023-04-30T07:32:33;26.83;;;22.35;;
32236;SDS011;18726;44.732;10.550;2023-04-30T07:35:37;28.05;;;22.67;;
32236;SDS011;18726;44.732;10.550;2023-04-30T07:38:41;29.40;;;23.17;;
32236;SDS011;18726;44.732;10.550;2023-04-30T07:41:44;32.00;;;22.65;;
32236;SDS011;18726;44.732;10.550;2023-04-30T07:44:48;30.83;;;24.70;;
32236;SDS011;18726;44.732;10.550;2023-04-30T07:47:51;33.17;;;24.92;;
32236;SDS011;18726;44.732;10.550;2023-04-30T07:50:55;35.05;;;27.27;;
32236;SDS011;18726;44.732;10.550;2023-04-30T07:53:59;32.35;;;25.02;;
32236;SDS011;18726;44.732;10.550;2023-04-30T07:57:03;34.90;;;26.85;;
32236;SDS011;18726;44.732;10.550;2023-04-30T08:00:08;29.30;;;25.17;;
32236;SDS011;18726;44.732;10.550;2023-04-30T08:03:15;29.17;;;23.60;;
32236;SDS011;18726;44.732;10.550;2023-04-30T08:06:19;30.77;;;25.38;;
32236;SDS011;18726;44.732;10.550;2023-04-30T08:09:23;27.80;;;23.58;;
32236;SDS011;18726;44.732;10.550;2023-04-30T08:12:26;26.98;;;24.13;;
32236;SDS011;18726;44.732;10.550;2023-04-30T08:15:32;31.05;;;25.15;;
32236;SDS011;18726;44.732;10.550;2023-04-30T08:18:36;33.90;;;24.48;;
32236;SDS011;18726;44.732;10.550;2023-04-30T08:21:46;28.67;;;24.05;;
32236;SDS011;18726;44.732;10.550;2023-04-30T08:24:50;29.40;;;25.58;;
32236;SDS011;18726;44.732;10.550;2023-04-30T08:27:54;32.38;;;24.75;;
32236;SDS011;18726;44.732;10.550;2023-04-30T08:30:58;28.38;;;24.17;;
32236;SDS011;18726;44.732;10.550;2023-04-30T08:34:02;27.98;;;24.98;;
32236;SDS011;18726;44.732;10.550;2023-04-30T08:37:06;27.02;;;22.20;;
32236;SDS011;18726;44.732;10.550;2023-04-30T08:40:10;26.63;;;21.73;;
32236;SDS011;18726;44.732;10.550;2023-04-30T08:43:14;25.42;;;19.75;;
32236;SDS011;18726;44.732;10.550;2023-04-30T08:46:19;25.58;;;20.33;;
32236;SDS011;18726;44.732;10.550;2023-04-30T08:49:25;24.40;;;19.77;;
32236;SDS011;18726;44.732;10.550;2023-04-30T08:52:30;22.23;;;17.15;;
32236;SDS011;18726;44.732;10.550;2023-04-30T08:55:40;19.42;;;17.38;;
32236;SDS011;18726;44.732;10.550;2023-04-30T08:58:44;25.08;;;18.23;;
32236;SDS011;18726;44.732;10.550;2023-04-30T09:01:48;21.92;;;17.30;;
32236;SDS011;18726;44.732;10.550;2023-04-30T09:04:51;21.92;;;18.88;;
32236;SDS011;18726;44.732;10.550;2023-04-30T09:07:55;20.75;;;18.05;;
32236;SDS011;18726;44.732;10.550;2023-04-30T09:10:59;18.98;;;16.92;;
32236;SDS011;18726;44.732;10.550;2023-04-30T09:14:03;19.17;;;16.05;;
32236;SDS011;18726;44.732;10.550;2023-04-30T09:17:07;20.10;;;17.95;;
32236;SDS011;18726;44.732;10.550;2023-04-30T09:20:11;29.00;;;19.33;;
32236;SDS011;18726;44.732;10.550;2023-04-30T09:23:16;18.67;;;15.98;;
32236;SDS011;18726;44.732;10.550;2023-04-30T09:26:20;18.73;;;15.85;;
32236;SDS011;18726;44.732;10.550;2023-04-30T09:29:36;21.13;;;15.45;;
32236;SDS011;18726;44.732;10.550;2023-04-30T09:32:53;17.83;;;15.43;;
32236;SDS011;18726;44.732;10.550;2023-04-30T09:35:59;18.70;;;15.55;;
32236;SDS011;18726;44.732;10.550;2023-04-30T09:39:11;17.30;;;15.38;;
32236;SDS011;18726;44.732;10.550;2023-04-30T09:42:16;18.40;;;14.45;;
32236;SDS011;18726;44.732;10.550;2023-04-30T09:45:23;17.63;;;14.02;;
32236;SDS011;18726;44.732;10.550;2023-04-30T09:48:27;17.88;;;13.73;;
32236;SDS011;18726;44.732;10.550;2023-04-30T09:51:30;20.45;;;15.50;;
32236;SDS011;18726;44.732;10.550;2023-04-30T09:54:34;20.13;;;15.40;;
32236;SDS011;18726;44.732;10.550;2023-04-30T09:57:39;14.75;;;13.23;;
32236;SDS011;18726;44.732;10.550;2023-04-30T10:00:46;26.92;;;14.15;;
32236;SDS011;18726;44.732;10.550;2023-04-30T10:03:52;18.50;;;13.93;;
32236;SDS011;18726;44.732;10.550;2023-04-30T10:06:56;20.23;;;15.73;;
32236;SDS011;18726;44.732;10.550;2023-04-30T10:13:17;22.35;;;15.20;;
32236;SDS011;18726;44.732;10.550;2023-04-30T10:19:35;25.77;;;17.85;;
32236;SDS011;18726;44.732;10.550;2023-04-30T10:22:44;19.52;;;16.27;;
32236;SDS011;18726;44.732;10.550;2023-04-30T10:25:50;21.38;;;16.27;;
32236;SDS011;18726;44.732;10.550;2023-04-30T10:28:55;18.27;;;15.07;;
32236;SDS011;18726;44.732;10.550;2023-04-30T10:32:01;19.88;;;17.08;;
32236;SDS011;18726;44.732;10.550;2023-04-30T10:35:09;22.75;;;17.13;;
32236;SDS011;18726;44.732;10.550;2023-04-30T10:38:22;19.95;;;16.02;;
32236;SDS011;18726;44.732;10.550;2023-04-30T10:41:29;19.42;;;15.52;;
32236;SDS011;18726;44.732;10.550;2023-04-30T10:44:34;19.38;;;17.27;;
32236;SDS011;18726;44.732;10.550;2023-04-30T10:47:41;18.52;;;15.18;;
32236;SDS011;18726;44.732;10.550;2023-04-30T10:50:45;17.58;;;15.75;;
32236;SDS011;18726;44.732;10.550;2023-04-30T10:53:49;19.25;;;15.35;;
32236;SDS011;18726;44.732;10.550;2023-04-30T10:57:10;18.05;;;16.00;;
32236;SDS011;18726;44.732;10.550;2023-04-30T11:00:17;15.88;;;14.32;;
32236;SDS011;18726;44.732;10.550;2023-04-30T11:03:21;16.25;;;13.35;;
32236;SDS011;18726;44.732;10.550;2023-04-30T11:06:25;16.38;;;14.43;;
32236;SDS011;18726;44.732;10.550;2023-04-30T11:09:55;20.70;;;14.73;;
32236;SDS011;18726;44.732;10.550;2023-04-30T11:13:02;16.05;;;12.63;;
32236;SDS011;18726;44.732;10.550;2023-04-30T11:16:09;15.68;;;12.20;;
32236;SDS011;18726;44.732;10.550;2023-04-30T11:19:14;13.68;;;11.15;;
32236;SDS011;18726;44.732;10.550;2023-04-30T11:22:20;13.25;;;11.85;;
32236;SDS011;18726;44.732;10.550;2023-04-30T11:25:26;14.20;;;11.88;;
32236;SDS011;18726;44.732;10.550;2023-04-30T11:28:49;15.27;;;11.88;;
32236;SDS011;18726;44.732;10.550;2023-04-30T11:31:55;14.02;;;12.35;;
32236;SDS011;18726;44.732;10.550;2023-04-30T11:34:59;12.00;;;10.60;;
32236;SDS011;18726;44.732;10.550;2023-04-30T11:38:06;13.88;;;11.65;;
32236;SDS011;18726;44.732;10.550;2023-04-30T11:41:11;14.77;;;12.27;;
32236;SDS011;18726;44.732;10.550;2023-04-30T11:44:22;16.08;;;11.93;;
32236;SDS011;18726;44.732;10.550;2023-04-30T11:47:37;15.68;;;11.73;;
32236;SDS011;18726;44.732;10.550;2023-04-30T11:50:44;13.75;;;10.88;;
32236;SDS011;18726;44.732;10.550;2023-04-30T11:53:48;14.77;;;11.07;;
32236;SDS011;18726;44.732;10.550;2023-04-30T11:56:53;19.83;;;10.10;;
32236;SDS011;18726;44.732;10.550;2023-04-30T12:00:06;12.23;;;11.00;;
32236;SDS011;18726;44.732;10.550;2023-04-30T12:03:13;18.80;;;10.90;;
32236;SDS011;18726;44.732;10.550;2023-04-30T12:06:22;13.93;;;10.70;;
32236;SDS011;18726;44.732;10.550;2023-04-30T12:09:25;14.20;;;10.75;;
32236;SDS011;18726;44.732;10.550;2023-04-30T12:12:29;12.30;;;10.98;;
32236;SDS011;18726;44.732;10.550;2023-04-30T12:15:33;11.38;;;10.18;;
32236;SDS011;18726;44.732;10.550;2023-04-30T12:18:36;15.27;;;10.70;;
32236;SDS011;18726;44.732;10.550;2023-04-30T12:21:40;12.30;;;11.02;;
32236;SDS011;18726;44.732;10.550;2023-04-30T12:24:47;11.18;;;10.02;;
32236;SDS011;18726;44.732;10.550;2023-04-30T12:27:51;12.93;;;11.68;;
32236;SDS011;18726;44.732;10.550;2023-04-30T12:30:56;15.60;;;10.65;;
32236;SDS011;18726;44.732;10.550;2023-04-30T12:34:02;13.68;;;10.38;;
32236;SDS011;18726;44.732;10.550;2023-04-30T12:37:07;14.63;;;11.13;;
32236;SDS011;18726;44.732;10.550;2023-04-30T12:40:12;11.68;;;10.50;;
32236;SDS011;18726;44.732;10.550;2023-04-30T12:43:16;13.07;;;11.23;;
32236;SDS011;18726;44.732;10.550;2023-04-30T12:46:24;12.40;;;10.32;;
32236;SDS011;18726;44.732;10.550;2023-04-30T12:49:32;14.70;;;11.35;;
32236;SDS011;18726;44.732;10.550;2023-04-30T12:52:37;11.65;;;10.40;;
32236;SDS011;18726;44.732;10.550;2023-04-30T12:55:43;13.00;;;11.02;;
32236;SDS011;18726;44.732;10.550;2023-04-30T12:58:47;12.57;;;11.30;;
32236;SDS011;18726;44.732;10.550;2023-04-30T13:01:53;12.82;;;10.98;;
32236;SDS011;18726;44.732;10.550;2023-04-30T13:04:59;10.80;;;9.70;;
32236;SDS011;18726;44.732;10.550;2023-04-30T13:08:03;14.98;;;10.20;;
32236;SDS011;18726;44.732;10.550;2023-04-30T13:11:08;13.15;;;10.18;;
32236;SDS011;18726;44.732;10.550;2023-04-30T13:14:11;12.30;;;10.27;;
32236;SDS011;18726;44.732;10.550;2023-04-30T13:17:15;12.38;;;9.77;;
32236;SDS011;18726;44.732;10.550;2023-04-30T13:20:19;12.57;;;9.88;;
32236;SDS011;18726;44.732;10.550;2023-04-30T13:23:22;15.05;;;10.10;;
32236;SDS011;18726;44.732;10.550;2023-04-30T13:26:26;11.88;;;10.55;;
32236;SDS011;18726;44.732;10.550;2023-04-30T13:29:30;14.68;;;10.80;;
32236;SDS011;18726;44.732;10.550;2023-04-30T13:32:34;12.43;;;11.13;;
32236;SDS011;18726;44.732;10.550;2023-04-30T13:35:37;13.07;;;11.00;;
32236;SDS011;18726;44.732;10.550;2023-04-30T13:38:41;15.35;;;11.90;;
32236;SDS011;18726;44.732;10.550;2023-04-30T13:41:45;13.63;;;10.55;;
32236;SDS011;18726;44.732;10.550;2023-04-30T13:44:51;12.88;;;11.18;;
32236;SDS011;18726;44.732;10.550;2023-04-30T13:47:54;17.50;;;10.38;;
32236;SDS011;18726;44.732;10.550;2023-04-30T13:50:59;11.73;;;10.07;;
32236;SDS011;18726;44.732;10.550;2023-04-30T13:54:03;15.30;;;11.55;;
32236;SDS011;18726;44.732;10.550;2023-04-30T13:57:07;12.13;;;10.23;;
32236;SDS011;18726;44.732;10.550;2023-04-30T14:00:11;12.80;;;11.50;;
32236;SDS011;18726;44.732;10.550;2023-04-30T14:03:17;11.77;;;10.05;;
32236;SDS011;18726;44.732;10.550;2023-04-30T14:06:21;11.35;;;10.25;;
32236;SDS011;18726;44.732;10.550;2023-04-30T14:09:25;11.82;;;10.68;;
32236;SDS011;18726;44.732;10.550;2023-04-30T14:12:29;12.98;;;11.52;;
32236;SDS011;18726;44.732;10.550;2023-04-30T14:15:33;14.57;;;11.80;;
32236;SDS011;18726;44.732;10.550;2023-04-30T14:18:37;12.20;;;10.88;;
32236;SDS011;18726;44.732;10.550;2023-04-30T14:21:41;12.15;;;10.95;;
32236;SDS011;18726;44.732;10.550;2023-04-30T14:24:45;13.55;;;11.75;;
32236;SDS011;18726;44.732;10.550;2023-04-30T14:27:49;12.55;;;10.73;;
32236;SDS011;18726;44.732;10.550;2023-04-30T14:30:52;13.30;;;10.02;;
32236;SDS011;18726;44.732;10.550;2023-04-30T14:33:56;14.68;;;10.05;;
32236;SDS011;18726;44.732;10.550;2023-04-30T14:37:01;11.30;;;9.95;;
32236;SDS011;18726;44.732;10.550;2023-04-30T14:40:05;11.50;;;9.18;;
32236;SDS011;18726;44.732;10.550;2023-04-30T14:43:10;11.32;;;7.80;;
32236;SDS011;18726;44.732;10.550;2023-04-30T14:46:14;8.07;;;6.70;;
32236;SDS011;18726;44.732;10.550;2023-04-30T14:49:18;10.02;;;8.10;;
32236;SDS011;18726;44.732;10.550;2023-04-30T14:52:21;8.95;;;7.57;;
32236;SDS011;18726;44.732;10.550;2023-04-30T14:55:25;7.47;;;6.75;;
32236;SDS011;18726;44.732;10.550;2023-04-30T14:58:29;9.25;;;7.82;;
32236;SDS011;18726;44.732;10.550;2023-04-30T15:01:32;8.98;;;6.10;;
32236;SDS011;18726;44.732;10.550;2023-04-30T15:04:36;8.40;;;6.70;;
32236;SDS011;18726;44.732;10.550;2023-04-30T15:07:39;7.28;;;6.30;;
32236;SDS011;18726;44.732;10.550;2023-04-30T15:10:42;7.97;;;7.15;;
32236;SDS011;18726;44.732;10.550;2023-04-30T15:13:47;8.02;;;7.03;;
32236;SDS011;18726;44.732;10.550;2023-04-30T15:16:50;12.95;;;6.75;;
32236;SDS011;18726;44.732;10.550;2023-04-30T15:19:54;7.55;;;6.38;;
32236;SDS011;18726;44.732;10.550;2023-04-30T15:22:58;9.38;;;6.13;;
32236;SDS011;18726;44.732;10.550;2023-04-30T15:26:02;11.32;;;6.60;;
32236;SDS011;18726;44.732;10.550;2023-04-30T15:29:08;7.63;;;6.45;;
32236;SDS011;18726;44.732;10.550;2023-04-30T15:32:12;11.38;;;6.15;;
32236;SDS011;18726;44.732;10.550;2023-04-30T15:35:16;7.35;;;6.65;;
32236;SDS011;18726;44.732;10.550;2023-04-30T15:38:20;6.75;;;5.53;;
32236;SDS011;18726;44.732;10.550;2023-04-30T15:41:24;10.90;;;6.80;;
32236;SDS011;18726;44.732;10.550;2023-04-30T15:44:28;7.72;;;6.32;;
32236;SDS011;18726;44.732;10.550;2023-04-30T15:47:32;11.48;;;5.68;;
32236;SDS011;18726;44.732;10.550;2023-04-30T15:50:36;10.35;;;5.90;;
32236;SDS011;18726;44.732;10.550;2023-04-30T15:53:39;8.45;;;7.25;;
32236;SDS011;18726;44.732;10.550;2023-04-30T15:56:43;12.45;;;6.18;;
32236;SDS011;18726;44.732;10.550;2023-04-30T15:59:47;6.15;;;5.60;;
32236;SDS011;18726;44.732;10.550;2023-04-30T16:02:50;9.30;;;6.20;;
32236;SDS011;18726;44.732;10.550;2023-04-30T16:05:53;6.15;;;5.28;;
32236;SDS011;18726;44.732;10.550;2023-04-30T16:08:57;9.90;;;6.20;;
32236;SDS011;18726;44.732;10.550;2023-04-30T16:12:01;9.38;;;6.32;;
32236;SDS011;18726;44.732;10.550;2023-04-30T16:15:05;7.10;;;5.65;;
32236;SDS011;18726;44.732;10.550;2023-04-30T16:18:10;9.15;;;6.28;;
32236;SDS011;18726;44.732;10.550;2023-04-30T16:21:13;8.52;;;5.53;;
32236;SDS011;18726;44.732;10.550;2023-04-30T16:24:17;6.82;;;5.60;;
32236;SDS011;18726;44.732;10.550;2023-04-30T16:27:21;11.77;;;6.10;;
32236;SDS011;18726;44.732;10.550;2023-04-30T16:30:25;11.20;;;5.85;;
32236;SDS011;18726;44.732;10.550;2023-04-30T16:33:29;10.20;;;5.25;;
32236;SDS011;18726;44.732;10.550;2023-04-30T16:36:33;6.43;;;5.82;;
32236;SDS011;18726;44.732;10.550;2023-04-30T16:39:36;8.32;;;6.18;;
32236;SDS011;18726;44.732;10.550;2023-04-30T16:42:39;12.02;;;6.05;;
32236;SDS011;18726;44.732;10.550;2023-04-30T16:45:43;9.43;;;5.60;;
32236;SDS011;18726;44.732;10.550;2023-04-30T16:48:46;11.80;;;5.80;;
32236;SDS011;18726;44.732;10.550;2023-04-30T16:51:50;5.72;;;5.10;;
32236;SDS011;18726;44.732;10.550;2023-04-30T16:54:54;9.38;;;5.68;;
32236;SDS011;18726;44.732;10.550;2023-04-30T16:57:58;6.38;;;5.38;;
32236;SDS011;18726;44.732;10.550;2023-04-30T17:01:02;6.75;;;5.78;;
32236;SDS011;18726;44.732;10.550;2023-04-30T17:04:05;6.55;;;5.80;;
32236;SDS011;18726;44.732;10.550;2023-04-30T17:07:09;5.90;;;5.40;;
32236;SDS011;18726;44.732;10.550;2023-04-30T17:10:15;10.43;;;6.00;;
32236;SDS011;18726;44.732;10.550;2023-04-30T17:13:20;7.38;;;5.50;;
32236;SDS011;18726;44.732;10.550;2023-04-30T17:16:25;7.72;;;5.45;;
32236;SDS011;18726;44.732;10.550;2023-04-30T17:19:28;10.88;;;5.35;;
32236;SDS011;18726;44.732;10.550;2023-04-30T17:22:32;6.97;;;5.38;;
32236;SDS011;18726;44.732;10.550;2023-04-30T17:25:36;6.07;;;5.55;;
32236;SDS011;18726;44.732;10.550;2023-04-30T17:28:40;6.07;;;4.93;;
32236;SDS011;18726;44.732;10.550;2023-04-30T17:31:44;7.43;;;5.82;;
32236;SDS011;18726;44.732;10.550;2023-04-30T17:34:48;6.15;;;5.55;;
32236;SDS011;18726;44.732;10.550;2023-04-30T17:37:52;5.90;;;5.28;;
32236;SDS011;18726;44.732;10.550;2023-04-30T17:40:56;5.80;;;5.20;;
32236;SDS011;18726;44.732;10.550;2023-04-30T17:44:00;11.05;;;5.90;;
32236;SDS011;18726;44.732;10.550;2023-04-30T17:47:07;10.18;;;6.03;;
32236;SDS011;18726;44.732;10.550;2023-04-30T17:50:10;7.45;;;5.97;;
32236;SDS011;18726;44.732;10.550;2023-04-30T17:53:13;7.28;;;6.57;;
32236;SDS011;18726;44.732;10.550;2023-04-30T17:56:17;7.55;;;5.60;;
32236;SDS011;18726;44.732;10.550;2023-04-30T17:59:21;7.80;;;7.07;;
32236;SDS011;18726;44.732;10.550;2023-04-30T18:02:24;10.80;;;7.50;;
32236;SDS011;18726;44.732;10.550;2023-04-30T18:05:28;10.27;;;7.80;;
32236;SDS011;18726;44.732;10.550;2023-04-30T18:08:32;8.82;;;6.97;;